createdAt,value
2023-04-30T00:05:02.354Z,100797.47
2023-04-30T00:10:06.367Z,100810.41
2023-04-30T00:15:10.707Z,100814.03
2023-04-30T00:20:15.845Z,100817.44
2023-04-30T00:25:19.174Z,100823.66
2023-04-30T00:30:22.508Z,100830.56
2023-04-30T00:35:27.151Z,100836.31
2023-04-30T00:40:31.688Z,100840.53
2023-04-30T00:45:34.893Z,100843.69
2023-04-30T00:50:39.811Z,100852.28
2023-04-30T00:55:44.452Z,100853.63
2023-04-30T01:00:50.959Z,100853.34
2023-04-30T01:05:56.653Z,100868.69
2023-04-30T01:11:13.919Z,100870.88
2023-04-30T01:16:20.845Z,100873.09
2023-04-30T01:21:25.744Z,100877.03
2023-04-30T01:26:46.797Z,100887.75
2023-04-30T01:31:52.242Z,100890.88
2023-04-30T01:37:13.615Z,100898.31
2023-04-30T01:42:22.927Z,100904.75
2023-04-30T01:53:07.940Z,100904.91
2023-04-30T01:58:14.625Z,100919.28
2023-04-30T02:03:19.415Z,100924.91
2023-04-30T02:08:22.703Z,100929.56
2023-04-30T02:13:26.264Z,100929.84
2023-04-30T02:18:31.077Z,100943.41
2023-04-30T02:23:34.627Z,100937.63
2023-04-30T02:28:37.805Z,100941.44
2023-04-30T02:33:42.393Z,100947.78
2023-04-30T02:38:45.714Z,100956.75
2023-04-30T02:43:48.788Z,100953.47
2023-04-30T02:48:53.864Z,100953.94
2023-04-30T02:53:57.329Z,100958.59
2023-04-30T02:59:00.841Z,100968.53
2023-04-30T03:04:05.961Z,100972.47
2023-04-30T03:09:09.503Z,100967.63
2023-04-30T03:14:12.836Z,100974.69
2023-04-30T03:19:17.668Z,100975.81
2023-04-30T03:24:20.842Z,100977.03
2023-04-30T03:29:24.033Z,100984.16
2023-04-30T03:34:28.929Z,100997.47
2023-04-30T03:39:32.221Z,100993.47
2023-04-30T03:44:35.809Z,100995.41
2023-04-30T03:49:40.474Z,100998.38
2023-04-30T03:54:43.578Z,101007.13
2023-04-30T03:59:46.773Z,101009.78
2023-04-30T04:04:52.697Z,101009.78
2023-04-30T04:09:56.246Z,101018.44
2023-04-30T04:14:59.615Z,101019.28
2023-04-30T04:20:06.218Z,101028.59
2023-04-30T04:25:10.588Z,101036.28
2023-04-30T04:30:15.241Z,101049.97
2023-04-30T04:35:20.789Z,101051.25
2023-04-30T04:40:24.187Z,101056.13
2023-04-30T04:45:27.403Z,101048.69
2023-04-30T04:50:32.376Z,101065.59
2023-04-30T04:55:35.974Z,101066.53
2023-04-30T05:00:40.450Z,101076.00
2023-04-30T05:05:45.147Z,101079.34
2023-04-30T05:10:48.595Z,101089.16
2023-04-30T05:15:53.934Z,101085.16
2023-04-30T05:20:58.607Z,101086.97
2023-04-30T05:26:02.471Z,101079.47
2023-04-30T05:31:05.916Z,101084.16
2023-04-30T05:36:11.341Z,101084.03
2023-04-30T05:41:14.546Z,101086.09
2023-04-30T05:46:17.832Z,101098.28
2023-04-30T05:51:22.427Z,101099.91
2023-04-30T05:56:26.297Z,101103.94
2023-04-30T06:01:29.669Z,101102.25
2023-04-30T06:06:34.518Z,101098.72
2023-04-30T06:11:39.018Z,101095.63
2023-04-30T06:16:43.826Z,101099.91
2023-04-30T06:21:48.857Z,101097.63
2023-04-30T06:26:53.147Z,101101.63
2023-04-30T06:31:56.757Z,101096.97
2023-04-30T06:37:01.691Z,101112.91
2023-04-30T06:42:05.324Z,101107.41
2023-04-30T06:47:08.456Z,101097.03
2023-04-30T06:52:13.400Z,101099.47
2023-04-30T06:57:16.751Z,101099.84
2023-04-30T07:02:21.990Z,101105.66
2023-04-30T07:07:27.341Z,101106.06
2023-04-30T07:12:32.133Z,101107.69
2023-04-30T07:17:35.406Z,101108.66
2023-04-30T07:22:39.960Z,101111.53
2023-04-30T07:27:43.331Z,101109.56
2023-04-30T07:32:50.368Z,101113.69
2023-04-30T07:37:55.556Z,101115.25
2023-04-30T07:42:58.814Z,101124.59
2023-04-30T07:48:03.253Z,101124.47
2023-04-30T07:53:11.144Z,101133.41
2023-04-30T07:58:14.401Z,101124.38
2023-04-30T08:03:20.157Z,101122.53
2023-04-30T08:08:25.037Z,101129.72
2023-04-30T08:13:33.807Z,101122.19
2023-04-30T08:18:46.847Z,101123.94
2023-04-30T08:23:51.631Z,101122.81
2023-04-30T08:28:54.875Z,101125.44
2023-04-30T08:33:57.970Z,101119.97
2023-04-30T08:39:04.399Z,101127.00
2023-04-30T08:44:08.676Z,101120.97
2023-04-30T08:49:12.370Z,101123.66
2023-04-30T08:54:36.824Z,101121.66
2023-04-30T08:59:39.961Z,101115.69
2023-04-30T09:04:43.431Z,101117.44
2023-04-30T09:09:48.221Z,101115.25
2023-04-30T09:15:09.676Z,101118.69
2023-04-30T09:20:15.108Z,101119.03
2023-04-30T09:25:20.515Z,101108.91
2023-04-30T09:30:34.939Z,101111.66
2023-04-30T09:35:40.335Z,101105.25
2023-04-30T09:40:45.340Z,101111.84
2023-04-30T09:45:51.590Z,101105.13
2023-04-30T09:50:55.481Z,101109.00
2023-04-30T09:56:09.483Z,101108.09
2023-04-30T10:01:15.702Z,101109.22
2023-04-30T10:06:23.246Z,101112.84
2023-04-30T10:11:35.939Z,101114.75
2023-04-30T10:16:49.132Z,101105.25
2023-04-30T10:21:53.101Z,101100.91
2023-04-30T10:27:05.872Z,101098.72
2023-04-30T10:32:10.057Z,101085.16
2023-04-30T10:37:22.385Z,101084.53
2023-04-30T10:42:32.084Z,101081.06
2023-04-30T10:47:36.645Z,101072.19
2023-04-30T10:52:40.444Z,101073.38
2023-04-30T10:57:50.089Z,101064.44
2023-04-30T11:02:58.493Z,101063.53
2023-04-30T11:08:02.546Z,101063.28
2023-04-30T11:13:10.746Z,101054.63
2023-04-30T11:18:15.477Z,101044.91
2023-04-30T11:23:32.185Z,101047.03
2023-04-30T11:28:58.628Z,101041.00
2023-04-30T11:34:04.047Z,101034.63
2023-04-30T11:39:09.623Z,101024.53
2023-04-30T11:44:29.827Z,101030.00
2023-04-30T11:49:45.634Z,101037.66
2023-04-30T11:54:48.813Z,101024.91
2023-04-30T11:59:53.951Z,101020.00
2023-04-30T12:04:57.615Z,101011.47
2023-04-30T12:10:01.736Z,101009.13
2023-04-30T12:15:15.039Z,101014.19
2023-04-30T12:20:19.742Z,101017.63
2023-04-30T12:25:24.167Z,101011.19
2023-04-30T12:30:28.835Z,101008.09
2023-04-30T12:35:32.849Z,101009.59
2023-04-30T12:40:37.094Z,101000.69
2023-04-30T12:45:51.602Z,101008.00
2023-04-30T12:50:56.880Z,101006.81
2023-04-30T12:56:10.685Z,101004.06
2023-04-30T13:01:18.402Z,100997.31
2023-04-30T13:06:23.139Z,100999.34
2023-04-30T13:11:28.060Z,100984.44
2023-04-30T13:16:33.137Z,100990.63
2023-04-30T13:21:36.619Z,100975.03
2023-04-30T13:26:42.832Z,100969.56
2023-04-30T13:31:56.386Z,100968.22
2023-04-30T13:36:59.705Z,100958.69
2023-04-30T13:42:03.010Z,100945.75
2023-04-30T13:47:09.972Z,100946.69
2023-04-30T13:52:13.302Z,100953.19
2023-04-30T13:57:16.451Z,100942.56
2023-04-30T14:02:21.315Z,100935.75
2023-04-30T14:07:25.626Z,100937.84
2023-04-30T14:12:30.635Z,100935.66
2023-04-30T14:17:35.801Z,100939.59
2023-04-30T14:22:39.560Z,100922.53
2023-04-30T14:27:43.677Z,100924.34
2023-04-30T14:32:48.785Z,100922.00
2023-04-30T14:37:54.819Z,100915.59
2023-04-30T14:42:57.977Z,100914.84
2023-04-30T14:48:05.287Z,100910.53
2023-04-30T14:53:09.574Z,100910.75
2023-04-30T14:58:17.071Z,100907.16
2023-04-30T15:03:22.206Z,100903.97
2023-04-30T15:08:29.551Z,100893.31
2023-04-30T15:13:33.049Z,100891.81
2023-04-30T15:18:37.710Z,100889.50
2023-04-30T15:23:41.188Z,100884.78
2023-04-30T15:28:45.507Z,100879.81
2023-04-30T15:33:50.260Z,100884.69
2023-04-30T15:38:53.805Z,100886.78
2023-04-30T15:43:57.029Z,100885.00
2023-04-30T15:49:03.567Z,100878.19
2023-04-30T15:54:10.952Z,100887.81
2023-04-30T15:59:17.735Z,100888.94
2023-04-30T16:04:24.354Z,100880.06
2023-04-30T16:09:27.722Z,100874.66
2023-04-30T16:14:32.868Z,100875.09
2023-04-30T16:19:37.917Z,100864.28
2023-04-30T16:24:42.251Z,100874.56
2023-04-30T16:29:45.673Z,100858.75
2023-04-30T16:34:51.596Z,100861.28
2023-04-30T16:39:55.195Z,100853.78
2023-04-30T16:44:59.069Z,100856.03
2023-04-30T16:50:03.958Z,100844.25
2023-04-30T16:55:10.554Z,100845.66
2023-04-30T17:00:16.909Z,100847.63
2023-04-30T17:05:21.859Z,100840.41
2023-04-30T17:10:26.092Z,100832.13
2023-04-30T17:15:29.715Z,100840.72
2023-04-30T17:20:34.758Z,100834.09
2023-04-30T17:25:38.563Z,100827.56
2023-04-30T17:30:44.380Z,100830.06
2023-04-30T17:35:49.066Z,100827.88
2023-04-30T17:40:53.746Z,100834.63
2023-04-30T17:45:57.557Z,100829.78
2023-04-30T17:51:12.118Z,100825.22
2023-04-30T17:56:15.286Z,100827.84
2023-04-30T18:01:26.409Z,100833.78
2023-04-30T18:06:34.112Z,100838.03
2023-04-30T18:11:37.320Z,100835.38
2023-04-30T18:16:41.271Z,100837.03
2023-04-30T18:21:46.576Z,100837.28
2023-04-30T18:26:49.872Z,100841.69
2023-04-30T18:31:53.260Z,100839.00
2023-04-30T18:36:58.182Z,100833.88
2023-04-30T18:42:01.742Z,100831.47
2023-04-30T18:47:06.816Z,100835.97
2023-04-30T18:52:11.518Z,100833.28
2023-04-30T18:57:16.514Z,100851.75
2023-04-30T19:02:22.522Z,100848.13
2023-04-30T19:07:27.724Z,100854.94
2023-04-30T19:12:31.093Z,100854.97
2023-04-30T19:17:35.311Z,100857.28
2023-04-30T19:22:40.747Z,100864.97
2023-04-30T19:27:44.258Z,100864.03
2023-04-30T19:32:49.793Z,100865.63
2023-04-30T19:37:54.510Z,100867.34
2023-04-30T19:42:58.627Z,100860.22
2023-04-30T19:48:02.996Z,100863.59
2023-04-30T19:53:08.227Z,100854.91
2023-04-30T19:58:11.711Z,100865.19
2023-04-30T20:03:17.175Z,100863.88
2023-04-30T20:08:22.440Z,100858.28
2023-04-30T20:13:25.823Z,100862.34
2023-04-30T20:18:29.249Z,100858.53
2023-04-30T20:23:34.286Z,100849.75
2023-04-30T20:28:38.506Z,100853.03
2023-04-30T20:33:42.976Z,100852.91
2023-04-30T20:38:48.216Z,100845.78
2023-04-30T20:43:52.406Z,100850.91
2023-04-30T20:49:04.096Z,100851.50
2023-04-30T20:54:09.608Z,100849.31
2023-04-30T20:59:13.453Z,100842.06
2023-04-30T21:04:16.918Z,100838.00
2023-04-30T21:09:22.295Z,100836.59
2023-04-30T21:14:26.125Z,100828.13
2023-04-30T21:19:29.345Z,100828.03
2023-04-30T21:24:33.934Z,100829.09
2023-04-30T21:29:38.303Z,100829.09
2023-04-30T21:34:41.875Z,100819.69
2023-04-30T21:39:50.069Z,100816.34
2023-04-30T21:44:54.304Z,100815.06
2023-04-30T21:49:58.842Z,100817.88
2023-04-30T21:55:03.646Z,100809.44
2023-04-30T22:00:08.933Z,100808.00
2023-04-30T22:05:13.708Z,100816.31
2023-04-30T22:10:18.444Z,100815.69
2023-04-30T22:15:22.302Z,100823.78
2023-04-30T22:20:25.475Z,100820.78
2023-04-30T22:25:30.063Z,100823.75
2023-04-30T22:30:51.784Z,100814.69
2023-04-30T22:35:55.591Z,100812.75
2023-04-30T22:41:01.266Z,100812.00
2023-04-30T22:46:04.729Z,100811.75
2023-04-30T22:51:07.956Z,100807.72
2023-04-30T22:56:13.083Z,100815.06
2023-04-30T23:01:16.891Z,100818.94
2023-04-30T23:06:20.611Z,100810.69
2023-04-30T23:11:26.164Z,100811.00
2023-04-30T23:16:29.531Z,100817.50
2023-04-30T23:21:33.940Z,100810.22
2023-04-30T23:26:38.612Z,100816.94
2023-04-30T23:31:41.992Z,100811.22
2023-04-30T23:36:45.188Z,100808.81
2023-04-30T23:41:49.755Z,100814.47
2023-04-30T23:46:53.236Z,100813.00
2023-04-30T23:51:56.708Z,100803.09
2023-04-30T23:57:01.951Z,100797.38
